KOQT METAR and TAF weather

Enter ICAO airport designator
Station Type Date Time Source
KOQT METAR 2018/11/13 20:05 UTC NOAA

KOQT 132005Z AUTO VRB03KT 10SM OVC014 07/05 A3022 RMK AO2 T00670050


Station Type Date Time Source
KOQT Decoded METAR 2018/11/13 20:05 UTC NOAA

OAK RIDGE, TN, United States (KOQT) 36-01N 84-14W
Nov 13, 2018 - 03:05 PM EST / 2018.11.13 2005 UTC
Wind: Variable at 3 MPH (3 KT):0
Visibility: 10 mile(s):0
Sky conditions: overcast
Temperature: 44.1 F (6.7 C)
Dew Point: 41.0 F (5.0 C)
Relative Humidity: 88%
Pressure (altimeter): 30.22 in. Hg (1023 hPa)
ob: KOQT 132005Z AUTO VRB03KT 10SM OVC014 07/05 A3022 RMK AO2 T00670050
cycle: 20

Station Type Date Time Source
KOQT TAF UTC NOAA

Error!


Example: see airport list